Time;durP1;ratioP1;P1;durP2;ratioP2;P2;SDS_P1;SDS_P2;PMS_P1;PMS_P2;Temp;Humidity;BMP_temperature;BMP_pressure;BME280_temperature;BME280_humidity;BME280_pressure;Samples;Min_cycle;Max_cycle;Signal;HPM_P1;HPM_P2
2022/08/06 00:02:07;;;;;;;4.32;1.80;;;13.30;99.90;;;;;;5011929;28;20086;-72
2022/08/06 00:04:33;;;;;;;4.78;1.90;;;13.20;99.90;;;;;;4989111;28;20046;-69
2022/08/06 00:06:59;;;;;;;2.95;1.88;;;13.20;99.90;;;;;;4972859;28;20046;-69
2022/08/06 00:09:30;;;;;;;5.00;2.33;;;13.20;99.90;;;;;;5024953;28;20129;-69
2022/08/06 00:12:00;;;;;;;5.50;2.33;;;13.20;99.90;;;;;;5003879;28;20061;-70
2022/08/06 00:14:31;;;;;;;2.72;2.00;;;13.20;99.90;;;;;;4970756;28;20046;-69
2022/08/06 00:16:57;;;;;;;3.25;2.20;;;13.10;99.90;;;;;;5005769;28;20054;-69
2022/08/06 00:19:23;;;;;;;3.47;2.10;;;13.10;99.90;;;;;;4992082;28;20050;-69
2022/08/06 00:21:50;;;;;;;6.03;2.35;;;13.00;99.90;;;;;;5003551;28;20371;-70
2022/08/06 00:24:16;;;;;;;4.65;2.20;;;13.00;99.90;;;;;;5012893;28;20046;-69
2022/08/06 00:26:42;;;;;;;2.63;2.42;;;13.00;99.90;;;;;;5008648;28;20414;-70
2022/08/06 00:29:09;;;;;;;4.70;2.38;;;13.00;99.90;;;;;;4984434;28;20171;-72
2022/08/06 00:31:35;;;;;;;3.97;2.50;;;12.90;99.90;;;;;;4985069;28;20059;-69
2022/08/06 00:34:02;;;;;;;5.10;2.10;;;12.90;99.90;;;;;;5008925;28;20047;-70
2022/08/06 00:36:30;;;;;;;6.72;2.67;;;12.90;99.90;;;;;;5005550;28;20061;-70
2022/08/06 00:38:57;;;;;;;4.93;2.20;;;12.80;99.90;;;;;;4970069;28;20478;-69
2022/08/06 00:41:23;;;;;;;6.65;1.85;;;12.80;99.90;;;;;;5013815;28;20061;-69
2022/08/06 00:43:50;;;;;;;3.13;1.90;;;12.80;99.90;;;;;;5007568;28;20047;-69
2022/08/06 00:46:16;;;;;;;2.10;1.90;;;12.80;99.90;;;;;;4969654;28;21649;-70
2022/08/06 00:48:42;;;;;;;3.80;2.33;;;12.70;99.90;;;;;;4995369;28;20098;-69
2022/08/06 00:51:08;;;;;;;3.47;1.92;;;12.70;99.90;;;;;;4983338;28;20101;-72
2022/08/06 00:53:36;;;;;;;5.10;2.03;;;12.70;99.90;;;;;;4997554;28;20058;-69
2022/08/06 00:56:04;;;;;;;2.70;2.17;;;12.60;99.90;;;;;;5000246;28;20050;-69
2022/08/06 00:58:30;;;;;;;3.22;2.08;;;12.60;99.90;;;;;;4968334;28;20206;-70
2022/08/06 01:00:56;;;;;;;4.15;2.05;;;12.50;99.90;;;;;;4988915;28;20133;-69
2022/08/06 01:03:22;;;;;;;5.60;2.10;;;12.50;99.90;;;;;;4983794;28;20137;-72
2022/08/06 01:05:48;;;;;;;3.40;2.10;;;12.40;99.90;;;;;;4978204;28;20076;-71
2022/08/06 01:08:14;;;;;;;3.60;2.03;;;12.40;99.90;;;;;;5004257;28;20481;-69
2022/08/06 01:10:40;;;;;;;4.40;1.90;;;12.40;99.90;;;;;;4992989;28;20058;-71
2022/08/06 01:13:06;;;;;;;5.53;2.30;;;12.30;99.90;;;;;;4979469;28;20298;-69
2022/08/06 01:15:34;;;;;;;4.40;1.88;;;12.40;99.90;;;;;;4992246;28;20128;-69
2022/08/06 01:18:21;;;;;;;2.13;1.50;;;12.30;99.90;;;;;;5019129;28;20516;-69
2022/08/06 01:21:17;;;;;;;3.60;1.80;;;12.20;99.90;;;;;;4992356;28;20130;-72
2022/08/06 01:23:52;;;;;;;4.40;1.60;;;12.10;99.90;;;;;;4988332;28;20051;-69
2022/08/06 01:26:24;;;;;;;2.63;1.60;;;12.10;99.90;;;;;;5007928;28;20401;-69
2022/08/06 01:29:05;;;;;;;3.33;1.65;;;12.00;99.90;;;;;;5005898;28;20125;-73
2022/08/06 01:31:44;;;;;;;2.15;1.40;;;11.90;99.90;;;;;;5012544;28;20106;-69
2022/08/06 01:34:27;;;;;;;2.70;1.50;;;11.80;99.90;;;;;;5026219;28;20053;-69
2022/08/06 01:37:19;;;;;;;2.38;1.70;;;11.80;99.90;;;;;;4988701;28;20051;-69
2022/08/06 01:39:48;;;;;;;3.75;1.52;;;11.70;99.90;;;;;;4974470;28;20054;-69
2022/08/06 01:42:17;;;;;;;2.38;1.60;;;11.60;99.90;;;;;;5024312;28;20400;-69
2022/08/06 01:44:48;;;;;;;3.47;1.92;;;11.50;99.90;;;;;;4991474;28;20054;-69
2022/08/06 01:47:17;;;;;;;2.05;1.52;;;11.50;99.90;;;;;;5004457;28;20498;-69
2022/08/06 01:49:50;;;;;;;4.47;1.55;;;11.40;99.90;;;;;;4981709;28;20050;-69
2022/08/06 01:52:18;;;;;;;3.15;1.60;;;11.40;99.90;;;;;;4976623;28;20101;-71
2022/08/06 01:54:47;;;;;;;1.70;1.60;;;11.40;99.90;;;;;;4970898;28;20078;-69
2022/08/06 01:57:17;;;;;;;2.88;1.60;;;11.30;99.90;;;;;;4987561;28;20153;-71
2022/08/06 01:59:47;;;;;;;3.58;1.80;;;11.30;99.90;;;;;;4974144;28;20408;-71
2022/08/06 02:02:21;;;;;;;3.78;1.77;;;11.20;99.90;;;;;;4975144;28;20109;-69
2022/08/06 02:04:51;;;;;;;4.53;1.85;;;11.20;99.90;;;;;;4987523;28;20056;-69
2022/08/06 02:07:22;;;;;;;4.47;1.73;;;11.10;99.90;;;;;;4972824;28;20512;-69
2022/08/06 02:09:50;;;;;;;2.45;1.70;;;11.10;99.90;;;;;;5008042;28;20140;-69
2022/08/06 02:12:23;;;;;;;2.05;1.70;;;11.10;99.90;;;;;;4969453;28;20141;-71
2022/08/06 02:15:04;;;;;;;2.05;1.77;;;11.00;99.90;;;;;;4970842;28;20129;-71
2022/08/06 02:17:39;;;;;;;4.57;2.00;;;10.90;99.90;;;;;;4963843;28;20047;-70
2022/08/06 02:20:08;;;;;;;4.32;2.00;;;10.90;99.90;;;;;;5006860;28;20058;-69
2022/08/06 02:22:37;;;;;;;4.80;2.00;;;10.80;99.90;;;;;;5001523;28;20069;-71
2022/08/06 02:25:11;;;;;;;3.00;2.10;;;10.80;99.90;;;;;;5003132;28;20057;-69
2022/08/06 02:27:42;;;;;;;5.00;1.98;;;10.80;99.90;;;;;;4985063;28;20035;-70
2022/08/06 02:30:09;;;;;;;3.38;1.80;;;10.70;99.90;;;;;;4977478;28;20136;-69
2022/08/06 02:32:35;;;;;;;2.55;1.90;;;10.70;99.90;;;;;;4976484;28;20133;-69
2022/08/06 02:35:01;;;;;;;3.55;1.80;;;10.70;99.90;;;;;;5013219;28;20052;-69
2022/08/06 02:37:36;;;;;;;4.38;1.90;;;10.60;99.90;;;;;;5001603;28;20043;-69
2022/08/06 02:40:09;;;;;;;1.95;1.80;;;10.60;99.90;;;;;;5002609;28;20525;-69
2022/08/06 02:42:47;;;;;;;2.50;2.00;;;10.60;99.90;;;;;;5005175;28;20433;-69
2022/08/06 02:45:21;;;;;;;2.42;1.80;;;10.60;99.90;;;;;;5006906;28;20062;-69
2022/08/06 02:47:50;;;;;;;2.65;1.70;;;10.60;99.90;;;;;;5004474;28;20046;-69
2022/08/06 02:50:18;;;;;;;2.30;1.95;;;10.50;99.90;;;;;;4986293;28;20078;-69
2022/08/06 02:52:49;;;;;;;2.30;2.00;;;10.50;99.90;;;;;;4992555;28;20123;-70
2022/08/06 02:55:22;;;;;;;4.63;2.42;;;10.50;99.90;;;;;;4999523;28;20526;-71
2022/08/06 02:58:13;;;;;;;4.75;2.13;;;10.50;99.90;;;;;;5004645;28;20065;-69
2022/08/06 03:00:42;;;;;;;3.28;1.83;;;10.60;99.90;;;;;;4976285;28;20054;-70
2022/08/06 03:03:13;;;;;;;3.40;2.33;;;10.50;99.90;;;;;;4976620;28;20098;-73
2022/08/06 03:05:41;;;;;;;5.90;2.33;;;10.40;99.90;;;;;;4989848;28;20098;-72
2022/08/06 03:08:10;;;;;;;3.10;2.00;;;10.50;99.90;;;;;;4982005;28;20054;-70
2022/08/06 03:10:37;;;;;;;2.72;2.45;;;10.50;99.90;;;;;;5010224;28;20047;-73
2022/08/06 03:13:05;;;;;;;4.93;2.75;;;10.50;99.90;;;;;;4979752;28;20122;-69
2022/08/06 03:15:34;;;;;;;3.03;2.10;;;10.60;99.90;;;;;;5002171;28;20508;-69
2022/08/06 03:18:03;;;;;;;3.50;2.63;;;10.50;99.90;;;;;;4995221;28;20117;-69
2022/08/06 03:20:31;;;;;;;4.38;2.35;;;10.50;99.90;;;;;;5000954;28;20049;-71
2022/08/06 03:23:00;;;;;;;4.15;2.50;;;10.50;99.90;;;;;;5005102;28;20445;-69
2022/08/06 03:25:28;;;;;;;3.15;2.75;;;10.50;99.90;;;;;;5007096;28;20050;-69
2022/08/06 03:27:55;;;;;;;3.53;2.80;;;10.50;99.90;;;;;;4982101;28;20035;-70
2022/08/06 03:30:22;;;;;;;6.15;3.03;;;10.50;99.90;;;;;;5014234;28;20038;-69
2022/08/06 03:32:49;;;;;;;4.47;2.83;;;10.50;99.90;;;;;;5005213;28;20085;-70
2022/08/06 03:35:16;;;;;;;4.78;2.55;;;10.50;99.90;;;;;;5006786;28;20042;-72
2022/08/06 03:37:43;;;;;;;4.05;3.13;;;10.50;99.90;;;;;;4970347;28;20070;-69
2022/08/06 03:40:12;;;;;;;4.05;2.65;;;10.60;99.90;;;;;;4991891;28;20061;-69
2022/08/06 03:42:38;;;;;;;4.50;2.80;;;10.40;99.90;;;;;;4985671;28;20593;-71
2022/08/06 03:45:05;;;;;;;5.57;3.10;;;10.40;99.90;;;;;;5006394;28;20059;-71
2022/08/06 03:47:42;;;;;;;3.65;2.60;;;10.40;99.90;;;;;;5006435;28;20050;-69
2022/08/06 03:50:15;;;;;;;5.68;2.80;;;10.30;99.90;;;;;;5000905;28;20493;-69
2022/08/06 03:52:47;;;;;;;3.75;2.85;;;10.30;99.90;;;;;;4979900;28;20394;-70
2022/08/06 03:55:17;;;;;;;4.03;2.97;;;10.30;99.90;;;;;;5013853;28;20058;-70
2022/08/06 03:57:50;;;;;;;3.67;2.97;;;10.20;99.90;;;;;;5012195;28;20113;-70
2022/08/06 04:00:19;;;;;;;6.57;3.53;;;10.20;99.90;;;;;;5012649;28;20061;-69
2022/08/06 04:02:52;;;;;;;5.47;3.30;;;10.30;99.90;;;;;;4988647;28;20039;-69
2022/08/06 04:05:20;;;;;;;4.97;3.58;;;10.30;99.90;;;;;;5005312;28;20375;-70
2022/08/06 04:07:49;;;;;;;5.45;3.35;;;10.30;99.90;;;;;;4984043;28;20124;-69
2022/08/06 04:10:17;;;;;;;3.92;3.53;;;10.40;99.90;;;;;;4987427;28;20050;-69
2022/08/06 04:12:45;;;;;;;6.60;3.67;;;10.30;99.90;;;;;;5005093;28;20039;-70
2022/08/06 04:15:12;;;;;;;4.10;3.35;;;10.40;99.90;;;;;;4990188;28;20449;-71
2022/08/06 04:17:41;;;;;;;5.68;3.40;;;10.40;99.90;;;;;;5008670;28;20089;-69
2022/08/06 04:20:10;;;;;;;5.90;3.63;;;10.40;99.90;;;;;;5009104;28;20050;-69
2022/08/06 04:22:36;;;;;;;5.38;3.40;;;10.40;99.90;;;;;;4982684;28;20058;-71
2022/08/06 04:25:04;;;;;;;5.22;3.47;;;10.40;99.90;;;;;;4983081;28;20128;-69
2022/08/06 04:27:31;;;;;;;4.72;3.22;;;10.40;99.90;;;;;;4966481;28;20069;-69
2022/08/06 04:29:58;;;;;;;3.28;2.95;;;10.40;99.90;;;;;;5003528;28;20050;-70
2022/08/06 04:32:26;;;;;;;4.00;3.47;;;10.40;99.90;;;;;;5004529;28;20042;-70
2022/08/06 04:34:52;;;;;;;6.10;3.78;;;10.40;99.90;;;;;;5002285;28;20058;-72
2022/08/06 04:37:19;;;;;;;3.83;3.30;;;10.50;99.90;;;;;;5003301;28;20048;-69
2022/08/06 04:39:45;;;;;;;5.95;3.55;;;10.50;99.90;;;;;;4990158;28;20680;-70
2022/08/06 04:42:11;;;;;;;3.58;3.28;;;10.50;99.90;;;;;;4989079;28;20105;-69
2022/08/06 04:44:37;;;;;;;6.80;3.53;;;10.50;99.90;;;;;;4963560;28;20062;-71
2022/08/06 04:47:04;;;;;;;4.80;3.60;;;10.50;99.90;;;;;;4988956;28;20054;-69
2022/08/06 04:49:30;;;;;;;4.85;3.53;;;10.60;99.90;;;;;;5007247;28;20585;-69
2022/08/06 04:51:57;;;;;;;5.57;3.40;;;10.60;99.90;;;;;;5007842;28;20055;-69
2022/08/06 04:54:22;;;;;;;5.32;3.70;;;10.70;99.90;;;;;;5008193;28;20046;-70
2022/08/06 04:56:48;;;;;;;5.15;3.38;;;10.80;99.90;;;;;;5003104;28;20393;-70
2022/08/06 04:59:14;;;;;;;5.00;3.42;;;10.90;99.90;;;;;;5002930;28;20041;-70
2022/08/06 05:01:40;;;;;;;6.00;3.35;;;11.00;99.90;;;;;;5005300;28;20571;-69
2022/08/06 05:04:06;;;;;;;5.38;3.25;;;11.20;99.90;;;;;;4988177;28;20489;-70
2022/08/06 05:06:48;;;;;;;5.63;3.42;;;11.30;99.90;;;;;;5003431;28;20168;-71
2022/08/06 05:09:23;;;;;;;3.85;3.15;;;11.40;99.90;;;;;;4988820;28;20125;-70
2022/08/06 05:12:05;;;;;;;6.72;3.33;;;11.50;99.90;;;;;;5004813;28;20046;-70
2022/08/06 05:14:42;;;;;;;4.55;3.13;;;11.60;99.90;;;;;;4970577;28;20055;-70
2022/08/06 05:17:13;;;;;;;6.22;2.92;;;11.70;99.90;;;;;;4974023;28;20390;-70
2022/08/06 05:19:44;;;;;;;3.20;2.90;;;11.80;99.90;;;;;;5007602;28;20058;-70
2022/08/06 05:22:11;;;;;;;;;;;11.90;99.90;;;;;;4974899;28;20049;-70
2022/08/06 05:24:37;;;;;;;3.30;2.78;;;12.10;99.90;;;;;;4979199;28;19937;-70
2022/08/06 05:27:03;;;;;;;4.20;3.15;;;12.10;99.90;;;;;;4968380;28;20125;-70
2022/08/06 05:29:29;;;;;;;6.80;3.20;;;12.30;99.90;;;;;;4984932;28;20089;-71
2022/08/06 05:32:01;;;;;;;4.50;2.92;;;12.30;99.90;;;;;;5002588;28;20062;-70
2022/08/06 05:34:27;;;;;;;4.43;2.90;;;12.40;99.90;;;;;;4968772;28;20047;-70
2022/08/06 05:36:53;;;;;;;4.95;3.28;;;12.50;99.90;;;;;;4978922;28;20054;-70
2022/08/06 05:39:20;;;;;;;4.13;2.95;;;12.70;99.90;;;;;;4974686;28;20557;-70
2022/08/06 05:41:46;;;;;;;5.25;2.78;;;12.80;99.90;;;;;;5004454;28;20055;-71
2022/08/06 05:44:13;;;;;;;4.95;2.85;;;13.00;99.90;;;;;;5005139;28;20469;-74
2022/08/06 05:46:51;;;;;;;3.38;2.97;;;13.30;99.90;;;;;;5003389;28;20108;-72
2022/08/06 05:49:38;;;;;;;5.57;2.80;;;13.40;99.90;;;;;;5010249;28;20055;-70
2022/08/06 05:52:26;;;;;;;2.95;2.60;;;13.50;99.90;;;;;;5007969;28;20050;-70
2022/08/06 05:55:10;;;;;;;4.93;2.28;;;13.60;99.90;;;;;;5001095;28;20129;-73
2022/08/06 05:57:42;;;;;;;4.28;2.45;;;13.70;99.90;;;;;;4990642;28;20128;-71
2022/08/06 06:00:12;;;;;;;4.60;2.47;;;13.80;99.90;;;;;;4989019;28;20047;-73
2022/08/06 06:02:48;;;;;;;4.75;2.50;;;13.80;99.90;;;;;;4971652;28;20042;-71
2022/08/06 06:05:15;;;;;;;3.63;2.33;;;13.80;99.90;;;;;;5002150;28;20058;-72
2022/08/06 06:07:42;;;;;;;5.18;2.70;;;13.80;99.90;;;;;;4968697;28;20046;-70
2022/08/06 06:10:09;;;;;;;3.97;2.80;;;13.80;99.90;;;;;;5003131;28;20050;-73
2022/08/06 06:12:36;;;;;;;3.08;2.47;;;13.70;99.90;;;;;;5003951;28;20450;-70
2022/08/06 06:15:05;;;;;;;3.75;2.40;;;13.70;99.90;;;;;;4986454;28;20137;-73
2022/08/06 06:17:54;;;;;;;4.18;2.60;;;13.70;99.90;;;;;;4986600;28;20437;-71
2022/08/06 06:20:39;;;;;;;4.32;2.80;;;13.80;99.90;;;;;;4979905;28;20145;-71
2022/08/06 06:23:27;;;;;;;4.28;2.58;;;14.00;99.90;;;;;;5001609;28;20050;-70
2022/08/06 06:26:06;;;;;;;2.55;2.33;;;14.20;99.90;;;;;;5005048;28;20477;-70
2022/08/06 06:28:40;;;;;;;3.55;2.28;;;14.50;99.90;;;;;;4973906;28;20057;-73
2022/08/06 06:31:18;;;;;;;5.63;2.10;;;14.80;99.90;;;;;;4975768;28;20142;-74
2022/08/06 06:34:07;;;;;;;3.65;1.98;;;15.00;99.90;;;;;;4971598;28;20034;-70
2022/08/06 06:37:02;;;;;;;3.10;1.88;;;15.30;99.90;;;;;;5001700;28;20050;-71
2022/08/06 06:39:41;;;;;;;1.65;1.55;;;15.70;99.90;;;;;;4947705;28;20078;-70
2022/08/06 06:42:16;;;;;;;2.72;1.55;;;16.00;99.90;;;;;;5002702;28;20043;-71
2022/08/06 06:45:00;;;;;;;2.72;1.40;;;16.30;99.90;;;;;;5014757;28;20116;-71
2022/08/06 06:48:05;;;;;;;1.70;1.40;;;16.70;99.90;;;;;;4974541;28;20054;-71
2022/08/06 06:50:35;;;;;;;1.60;1.25;;;16.90;99.90;;;;;;4990701;28;20042;-72
2022/08/06 06:53:02;;;;;;;2.22;1.00;;;17.30;99.90;;;;;;4985208;28;20043;-70
2022/08/06 06:55:43;;;;;;;2.88;0.90;;;17.50;99.90;;;;;;4992510;28;20047;-71
2022/08/06 06:58:21;;;;;;;;;;;17.40;99.90;;;;;;4989014;28;20065;-72
2022/08/06 07:00:48;;;;;;;2.58;0.80;;;17.20;99.90;;;;;;4971795;28;20523;-70
2022/08/06 07:03:16;;;;;;;5.03;1.13;;;17.00;99.90;;;;;;4979782;28;20050;-72
2022/08/06 07:05:46;;;;;;;1.40;0.82;;;16.90;99.90;;;;;;4957562;28;20058;-71
2022/08/06 07:08:14;;;;;;;0.70;0.60;;;16.90;99.90;;;;;;4974768;28;20469;-70
2022/08/06 07:10:43;;;;;;;2.05;0.65;;;16.80;99.90;;;;;;5009939;28;20617;-70
2022/08/06 07:13:11;;;;;;;4.30;0.75;;;16.70;99.90;;;;;;5000424;28;20387;-70
2022/08/06 07:15:38;;;;;;;1.20;0.73;;;16.80;99.90;;;;;;4991932;28;20078;-70
2022/08/06 07:18:05;;;;;;;1.63;0.90;;;16.90;99.90;;;;;;4989813;28;20090;-71
2022/08/06 07:20:32;;;;;;;5.38;0.80;;;16.80;99.90;;;;;;5008739;28;20507;-70
2022/08/06 07:23:01;;;;;;;1.55;0.70;;;16.80;99.90;;;;;;4996815;28;20050;-70
2022/08/06 07:25:28;;;;;;;3.70;0.85;;;16.70;99.90;;;;;;4984254;28;20147;-69
2022/08/06 07:27:54;;;;;;;1.48;0.70;;;16.80;99.90;;;;;;4993833;28;20043;-70
2022/08/06 07:30:21;;;;;;;2.80;0.77;;;16.70;99.90;;;;;;4991120;28;20043;-70
2022/08/06 07:32:48;;;;;;;3.42;0.90;;;16.70;99.90;;;;;;5008205;28;20055;-69
2022/08/06 07:35:16;;;;;;;1.50;0.70;;;16.70;99.90;;;;;;4988593;28;20373;-70
2022/08/06 07:37:59;;;;;;;1.15;1.00;;;16.80;99.90;;;;;;5001370;28;20058;-71
2022/08/06 07:40:38;;;;;;;2.10;0.70;;;16.90;99.90;;;;;;4989746;28;20481;-70
2022/08/06 07:43:26;;;;;;;1.30;0.73;;;17.00;99.90;;;;;;5006529;28;20051;-70
2022/08/06 07:45:54;;;;;;;1.85;0.70;;;17.20;99.90;;;;;;5006889;28;20429;-71
2022/08/06 07:48:30;;;;;;;1.50;0.90;;;17.50;99.90;;;;;;5006438;28;20053;-72
2022/08/06 07:50:58;;;;;;;3.13;1.00;;;17.60;99.90;;;;;;5007890;28;20449;-70
2022/08/06 07:53:24;;;;;;;2.78;0.70;;;17.80;99.90;;;;;;4989536;28;20054;-70
2022/08/06 07:55:51;;;;;;;1.35;0.80;;;17.90;99.90;;;;;;4988270;28;20129;-71
2022/08/06 07:58:18;;;;;;;3.55;1.00;;;18.10;99.90;;;;;;5015926;28;20272;-70
2022/08/06 08:00:44;;;;;;;1.83;0.70;;;18.10;99.90;;;;;;5007697;28;20063;-70
2022/08/06 08:08:40;;;;;;;0.50;0.35;;;18.40;99.90;;;;;;4992800;28;20050;-70
2022/08/06 08:11:07;;;;;;;4.97;0.88;;;18.50;99.90;;;;;;4989511;28;20053;-70
2022/08/06 08:13:35;;;;;;;3.72;0.70;;;18.70;99.90;;;;;;4991914;28;20050;-71
2022/08/06 08:16:02;;;;;;;2.20;0.50;;;18.90;99.90;;;;;;5002567;28;20410;-69
2022/08/06 08:18:30;;;;;;;3.08;0.63;;;19.10;99.90;;;;;;5013134;28;20046;-70
2022/08/06 08:21:00;;;;;;;3.17;0.65;;;19.20;99.90;;;;;;5011267;28;20195;-70
2022/08/06 08:23:30;;;;;;;1.83;0.90;;;19.40;99.90;;;;;;5019326;28;20056;-70
2022/08/06 08:26:01;;;;;;;2.47;0.70;;;19.40;99.90;;;;;;5007268;28;20054;-70
2022/08/06 08:28:28;;;;;;;2.60;0.50;;;19.60;99.90;;;;;;4987777;28;20133;-69
2022/08/06 08:30:58;;;;;;;2.85;0.55;;;19.80;99.90;;;;;;5005087;28;20057;-70
2022/08/06 08:33:25;;;;;;;1.40;0.55;;;19.70;99.90;;;;;;5010527;28;20047;-70
2022/08/06 08:35:51;;;;;;;2.13;0.50;;;19.60;99.90;;;;;;4992791;28;20046;-72
2022/08/06 08:38:17;;;;;;;1.55;0.55;;;19.90;99.90;;;;;;5007033;28;20050;-72
2022/08/06 08:40:45;;;;;;;3.30;0.50;;;19.80;99.90;;;;;;5018279;28;20447;-71
2022/08/06 08:43:16;;;;;;;1.63;0.65;;;19.90;99.90;;;;;;4973569;28;20120;-73
2022/08/06 08:45:45;;;;;;;3.10;0.60;;;20.00;99.90;;;;;;5015416;28;20058;-73
2022/08/06 08:48:12;;;;;;;2.63;0.80;;;19.80;99.90;;;;;;4995087;28;20050;-72
2022/08/06 08:50:40;;;;;;;1.85;0.65;;;19.70;99.90;;;;;;4997465;28;20097;-72
2022/08/06 08:53:10;;;;;;;1.77;0.70;;;19.40;99.90;;;;;;4992108;28;20058;-72
2022/08/06 08:55:36;;;;;;;2.03;0.57;;;19.30;99.90;;;;;;4992876;28;20440;-71
2022/08/06 08:58:02;;;;;;;1.58;0.60;;;19.30;99.90;;;;;;5001224;28;20130;-72
2022/08/06 09:00:28;;;;;;;2.58;0.80;;;19.30;99.90;;;;;;4972968;28;20113;-74
2022/08/06 09:02:55;;;;;;;4.68;0.65;;;19.50;99.90;;;;;;5015117;28;20047;-71
2022/08/06 09:05:22;;;;;;;1.45;0.60;;;19.50;99.90;;;;;;4994663;28;20404;-71
2022/08/06 09:07:51;;;;;;;1.50;0.50;;;19.50;99.90;;;;;;4973476;28;20051;-72
2022/08/06 09:10:17;;;;;;;1.83;0.70;;;19.50;99.90;;;;;;5016202;28;20046;-71
2022/08/06 09:12:44;;;;;;;3.45;1.02;;;19.60;99.90;;;;;;5008793;28;20103;-71
2022/08/06 09:15:10;;;;;;;3.03;0.70;;;19.70;99.90;;;;;;4997829;28;20045;-70
2022/08/06 09:17:37;;;;;;;3.25;0.80;;;20.10;99.90;;;;;;4990156;28;20049;-71
2022/08/06 09:20:04;;;;;;;2.47;0.70;;;20.30;99.90;;;;;;5012389;28;20568;-70
2022/08/06 09:22:30;;;;;;;1.95;0.70;;;20.30;99.90;;;;;;4974579;28;20046;-72
2022/08/06 09:24:57;;;;;;;2.90;0.80;;;20.10;99.90;;;;;;5007989;28;20516;-73
2022/08/06 09:27:31;;;;;;;2.33;0.80;;;19.90;99.90;;;;;;4999465;28;20054;-71
2022/08/06 09:30:00;;;;;;;3.50;1.00;;;20.20;99.90;;;;;;4990791;28;20436;-73
2022/08/06 09:32:46;;;;;;;1.48;1.15;;;20.50;99.90;;;;;;5009002;28;20047;-69
2022/08/06 09:35:17;;;;;;;3.35;0.88;;;21.00;99.90;;;;;;4985788;28;20149;-70
2022/08/06 09:37:44;;;;;;;3.75;0.93;;;21.10;99.90;;;;;;4984708;28;20086;-70
2022/08/06 09:40:19;;;;;;;1.75;0.77;;;20.70;99.90;;;;;;5014841;28;20051;-72
2022/08/06 09:42:52;;;;;;;2.15;0.90;;;20.40;99.90;;;;;;5001004;28;20045;-69
2022/08/06 09:45:23;;;;;;;2.80;0.90;;;20.10;99.90;;;;;;4973094;28;20390;-70
2022/08/06 09:48:02;;;;;;;3.40;1.17;;;19.90;99.90;;;;;;4993391;28;20046;-67
2022/08/06 09:50:41;;;;;;;2.97;1.20;;;19.80;99.90;;;;;;4996206;28;20373;-69
2022/08/06 09:53:07;;;;;;;2.65;1.23;;;19.80;99.90;;;;;;5018717;28;20047;-69
2022/08/06 09:55:34;;;;;;;2.75;1.30;;;19.80;99.90;;;;;;4984428;28;20401;-69
2022/08/06 09:58:00;;;;;;;10.93;2.10;;;19.90;99.90;;;;;;5015180;28;20109;-69
2022/08/06 10:00:32;;;;;;;2.00;1.10;;;19.90;99.90;;;;;;5020492;28;20050;-68
2022/08/06 10:03:09;;;;;;;3.67;1.58;;;19.90;99.90;;;;;;4963433;28;20046;-68
2022/08/06 10:05:35;;;;;;;2.10;1.20;;;20.10;99.90;;;;;;4981550;28;20046;-68
2022/08/06 10:08:10;;;;;;;4.05;1.38;;;20.50;99.90;;;;;;5000453;28;20054;-68
2022/08/06 10:10:39;;;;;;;3.85;1.10;;;20.80;99.90;;;;;;4990907;28;20052;-68
2022/08/06 10:13:17;;;;;;;2.35;1.15;;;21.00;99.90;;;;;;4991093;28;20100;-68
2022/08/06 10:15:48;;;;;;;3.40;1.40;;;21.40;99.90;;;;;;4989454;28;20053;-69
2022/08/06 10:18:37;;;;;;;3.15;1.20;;;21.70;99.90;;;;;;4979738;28;20117;-68
2022/08/06 10:21:09;;;;;;;3.22;1.30;;;22.10;99.40;;;;;;5013222;28;20230;-69
2022/08/06 10:23:40;;;;;;;4.15;1.30;;;21.90;99.90;;;;;;4990239;28;20053;-68
2022/08/06 10:26:10;;;;;;;3.10;1.40;;;21.80;99.90;;;;;;5013572;28;20062;-69
2022/08/06 10:28:41;;;;;;;4.85;1.10;;;21.70;99.90;;;;;;4998446;28;20493;-69
2022/08/06 10:31:09;;;;;;;1.52;1.23;;;21.40;99.70;;;;;;5012345;28;20042;-69
2022/08/06 10:33:54;;;;;;;2.70;1.52;;;21.10;99.10;;;;;;5002912;28;20493;-68
2022/08/06 10:36:26;;;;;;;1.60;1.50;;;20.70;97.60;;;;;;5002470;28;20117;-69
2022/08/06 10:38:55;;;;;;;3.55;1.20;;;20.70;98.90;;;;;;4980515;28;20130;-70
2022/08/06 10:41:22;;;;;;;4.60;1.40;;;20.90;98.90;;;;;;5004045;28;20559;-69
2022/08/06 10:43:49;;;;;;;2.47;1.30;;;21.30;98.60;;;;;;4991388;28;20046;-69
2022/08/06 10:46:19;;;;;;;2.30;1.15;;;21.70;97.20;;;;;;4989820;28;20542;-69
2022/08/06 10:48:49;;;;;;;2.30;1.23;;;21.90;95.90;;;;;;4988112;28;20042;-69
2022/08/06 10:51:15;;;;;;;2.70;1.27;;;22.10;94.80;;;;;;4996461;28;20875;-68
2022/08/06 10:53:45;;;;;;;2.80;1.40;;;22.10;93.20;;;;;;4997675;28;20126;-68
2022/08/06 10:56:13;;;;;;;2.15;1.48;;;21.90;90.30;;;;;;4992884;28;20058;-68
2022/08/06 10:58:40;;;;;;;1.83;1.40;;;21.80;87.70;;;;;;4983268;28;20060;-73
2022/08/06 11:01:10;;;;;;;2.80;1.70;;;21.60;87.40;;;;;;4994457;28;20050;-71
2022/08/06 11:03:35;;;;;;;2.30;1.52;;;21.40;85.80;;;;;;4996120;28;20046;-73
2022/08/06 11:06:35;;;;;;;2.28;1.60;;;21.50;86.60;;;;;;4982164;28;20058;-69
2022/08/06 11:09:22;;;;;;;3.10;1.60;;;21.30;77.90;;;;;;4990732;28;20082;-69
2022/08/06 11:11:57;;;;;;;3.00;1.58;;;21.50;84.30;;;;;;4990312;28;20062;-69
2022/08/06 11:14:23;;;;;;;2.80;1.67;;;22.00;80.50;;;;;;4995713;28;20473;-69
2022/08/06 11:17:00;;;;;;;4.55;1.80;;;22.20;80.60;;;;;;4973277;28;20041;-68
2022/08/06 11:19:42;;;;;;;2.75;1.90;;;22.60;77.10;;;;;;4994232;28;20200;-69
2022/08/06 11:22:07;;;;;;;3.97;1.90;;;22.90;75.10;;;;;;4989958;28;20054;-68
2022/08/06 11:24:49;;;;;;;2.03;1.75;;;23.20;77.90;;;;;;4971361;28;20405;-71
2022/08/06 11:27:47;;;;;;;3.38;1.90;;;23.40;72.80;;;;;;4994510;28;20174;-73
2022/08/06 11:30:13;;;;;;;3.10;1.73;;;23.40;70.00;;;;;;5016936;28;20046;-70
2022/08/06 11:32:52;;;;;;;2.30;1.55;;;23.30;71.40;;;;;;5018748;28;20085;-69
2022/08/06 11:35:33;;;;;;;2.55;1.73;;;23.40;65.50;;;;;;4990601;28;20086;-68
2022/08/06 11:38:28;;;;;;;2.53;1.95;;;23.50;66.20;;;;;;4980294;28;20104;-69
2022/08/06 11:41:07;;;;;;;2.65;1.83;;;24.00;68.10;;;;;;4980922;28;20046;-68
2022/08/06 11:44:05;;;;;;;4.60;2.47;;;24.20;65.40;;;;;;5000436;28;20082;-69
2022/08/06 11:46:39;;;;;;;3.17;2.38;;;24.30;68.10;;;;;;5004776;28;20158;-68
2022/08/06 11:49:13;;;;;;;3.40;2.50;;;24.00;67.00;;;;;;4980993;28;20066;-68
2022/08/06 11:51:52;;;;;;;4.07;2.50;;;23.80;69.30;;;;;;5007454;28;20086;-69
2022/08/06 11:54:32;;;;;;;4.45;3.00;;;23.80;69.20;;;;;;4978355;28;20057;-72
2022/08/06 11:57:01;;;;;;;3.47;2.50;;;24.30;67.90;;;;;;4998938;28;20042;-69
2022/08/06 11:59:38;;;;;;;3.92;2.70;;;24.10;67.10;;;;;;4993706;28;20109;-69
2022/08/06 12:02:07;;;;;;;4.88;3.20;;;23.90;66.70;;;;;;4981068;28;20049;-71
2022/08/06 12:04:36;;;;;;;4.72;2.70;;;23.90;68.40;;;;;;4979760;28;20478;-70
2022/08/06 12:07:26;;;;;;;4.57;2.90;;;24.30;69.20;;;;;;4990051;28;20063;-71
2022/08/06 12:10:02;;;;;;;3.40;2.35;;;24.80;64.90;;;;;;4973875;28;20054;-72
2022/08/06 12:12:48;;;;;;;3.78;2.20;;;24.90;66.00;;;;;;4999309;28;20132;-75
2022/08/06 12:15:21;;;;;;;4.95;2.58;;;24.70;62.30;;;;;;4972681;28;20054;-69
2022/08/06 12:17:53;;;;;;;5.22;2.60;;;24.70;66.00;;;;;;5016143;28;20045;-71
2022/08/06 12:20:36;;;;;;;3.72;2.88;;;24.60;64.40;;;;;;5012710;28;20042;-74
2022/08/06 12:23:08;;;;;;;4.28;2.60;;;24.50;64.20;;;;;;4999039;28;20050;-70
2022/08/06 12:25:45;;;;;;;3.90;2.70;;;24.50;66.10;;;;;;4977500;28;20499;-70
2022/08/06 12:28:13;;;;;;;3.78;2.60;;;24.70;65.00;;;;;;4973638;28;20517;-67
2022/08/06 12:30:51;;;;;;;4.68;2.85;;;25.10;66.70;;;;;;5024366;28;20039;-71
2022/08/06 12:33:20;;;;;;;4.10;2.80;;;25.50;63.90;;;;;;4975149;28;20058;-70
2022/08/06 12:35:50;;;;;;;4.70;2.72;;;25.60;64.20;;;;;;4993172;28;20054;-69
2022/08/06 12:38:17;;;;;;;6.20;3.00;;;25.30;62.10;;;;;;4992714;28;20039;-70
2022/08/06 12:40:53;;;;;;;4.28;2.97;;;25.30;63.70;;;;;;4992584;28;20054;-70
2022/08/06 12:43:19;;;;;;;3.30;2.80;;;25.20;62.40;;;;;;4998571;28;20044;-69
2022/08/06 12:45:46;;;;;;;5.10;2.90;;;25.20;62.60;;;;;;4989198;28;20090;-69
2022/08/06 12:48:13;;;;;;;3.47;2.72;;;25.20;62.60;;;;;;5010764;28;20085;-69
2022/08/06 12:50:42;;;;;;;4.20;3.05;;;25.70;63.70;;;;;;4965973;28;20133;-69
2022/08/06 12:53:13;;;;;;;3.97;2.95;;;26.10;62.50;;;;;;4986508;28;20591;-69
2022/08/06 12:55:48;;;;;;;4.57;3.20;;;26.40;61.00;;;;;;4977286;28;20049;-70
2022/08/06 12:58:20;;;;;;;5.35;3.15;;;26.80;60.60;;;;;;5014882;28;20126;-68
2022/08/06 13:00:49;;;;;;;4.43;3.25;;;26.80;59.80;;;;;;4988486;28;20562;-70
2022/08/06 13:03:17;;;;;;;4.40;2.88;;;27.30;60.20;;;;;;5012304;28;20046;-70
2022/08/06 13:05:44;;;;;;;4.68;3.38;;;27.60;58.90;;;;;;5016710;28;20053;-71
2022/08/06 13:08:12;;;;;;;3.50;3.00;;;28.10;56.80;;;;;;4989280;28;20082;-70
2022/08/06 13:10:39;;;;;;;3.50;3.03;;;27.80;56.30;;;;;;4988926;28;20477;-69
2022/08/06 13:13:09;;;;;;;4.32;3.08;;;28.10;55.40;;;;;;5005280;28;20520;-70
2022/08/06 13:15:36;;;;;;;6.60;3.75;;;27.90;54.80;;;;;;4987006;28;20042;-70